createdAt,value
2022-12-31T00:01:30.999Z,97417.22
2022-12-31T00:03:57.669Z,97397.31
2022-12-31T00:06:27.454Z,97403.22
2022-12-31T00:08:55.002Z,97405.81
2022-12-31T00:11:22.073Z,97409.34
2022-12-31T00:13:48.709Z,97395.66
2022-12-31T00:16:24.064Z,97401.81
2022-12-31T00:18:52.159Z,97410.22
2022-12-31T00:21:18.979Z,97425.34
2022-12-31T00:23:45.645Z,97417.50
2022-12-31T00:26:13.950Z,97413.06
2022-12-31T00:28:41.022Z,97422.56
2022-12-31T00:31:15.587Z,97432.41
2022-12-31T00:33:42.461Z,97421.47
2022-12-31T00:36:13.075Z,97432.34
2022-12-31T00:38:40.552Z,97421.44
2022-12-31T00:41:07.204Z,97412.22
2022-12-31T00:43:34.061Z,97386.50
2022-12-31T00:46:00.770Z,97390.59
2022-12-31T00:48:27.576Z,97378.31
2022-12-31T00:50:54.539Z,97399.22
2022-12-31T00:53:21.375Z,97382.53
2022-12-31T00:55:48.006Z,97391.94
2022-12-31T00:58:14.757Z,97394.69
2022-12-31T01:00:41.382Z,97376.25
2022-12-31T01:03:08.068Z,97375.78
2022-12-31T01:05:35.140Z,97396.75
2022-12-31T01:08:01.850Z,97400.00
2022-12-31T01:10:28.477Z,97408.53
2022-12-31T01:12:55.191Z,97414.06
2022-12-31T01:15:21.831Z,97411.72
2022-12-31T01:17:48.539Z,97414.44
2022-12-31T01:20:15.184Z,97414.56
2022-12-31T01:22:41.829Z,97416.72
2022-12-31T01:25:08.712Z,97407.94
2022-12-31T01:27:35.346Z,97405.84
2022-12-31T01:30:02.014Z,97391.44
2022-12-31T01:32:28.673Z,97398.28
2022-12-31T01:34:55.347Z,97404.09
2022-12-31T01:37:22.000Z,97409.19
2022-12-31T01:39:48.656Z,97406.44
2022-12-31T01:42:15.285Z,97407.34
2022-12-31T01:44:41.786Z,97390.09
2022-12-31T01:47:13.893Z,97402.84
2022-12-31T01:49:53.910Z,97400.69
2022-12-31T01:52:31.370Z,97405.09
2022-12-31T01:55:21.370Z,97413.47
2022-12-31T01:57:51.920Z,97394.81
2022-12-31T02:00:18.550Z,97404.16
2022-12-31T02:02:45.405Z,97398.34
2022-12-31T02:05:17.967Z,97387.47
2022-12-31T02:07:44.640Z,97397.31
2022-12-31T02:10:11.310Z,97385.13
2022-12-31T02:12:37.992Z,97378.97
2022-12-31T02:15:05.048Z,97393.53
2022-12-31T02:17:43.309Z,97395.56
2022-12-31T02:20:21.836Z,97402.94
2022-12-31T02:23:12.057Z,97401.44
2022-12-31T02:26:04.946Z,97428.16
2022-12-31T02:29:08.418Z,97421.53
2022-12-31T02:31:37.435Z,97439.72
2022-12-31T02:34:07.896Z,97426.44
2022-12-31T02:36:36.766Z,97424.22
2022-12-31T02:39:04.154Z,97422.53
2022-12-31T02:41:30.789Z,97419.38
2022-12-31T02:43:57.442Z,97412.53
2022-12-31T02:46:31.472Z,97398.50
2022-12-31T02:49:12.317Z,97418.66
2022-12-31T02:52:01.090Z,97406.94
2022-12-31T02:54:32.037Z,97407.44
2022-12-31T02:57:13.379Z,97415.53
2022-12-31T02:59:50.295Z,97422.06
2022-12-31T03:02:17.353Z,97420.47
2022-12-31T03:04:52.106Z,97418.03
2022-12-31T03:07:23.150Z,97418.88
2022-12-31T03:09:50.233Z,97425.47
2022-12-31T03:12:17.208Z,97433.06
2022-12-31T03:14:43.847Z,97429.34
2022-12-31T03:17:10.541Z,97435.72
2022-12-31T03:19:37.257Z,97429.75
2022-12-31T03:22:03.923Z,97424.63
2022-12-31T03:24:30.688Z,97432.03
2022-12-31T03:26:57.351Z,97423.84
2022-12-31T03:29:23.974Z,97425.53
2022-12-31T03:31:50.685Z,97422.84
2022-12-31T03:34:17.370Z,97422.91
2022-12-31T03:36:44.009Z,97428.38
2022-12-31T03:39:10.785Z,97411.94
2022-12-31T03:41:37.424Z,97424.38
2022-12-31T03:44:04.061Z,97428.38
2022-12-31T03:46:30.711Z,97413.44
2022-12-31T03:48:57.348Z,97421.47
2022-12-31T03:51:24.042Z,97429.72
2022-12-31T03:53:50.692Z,97431.19
2022-12-31T03:56:17.335Z,97439.72
2022-12-31T03:58:45.036Z,97436.06
2022-12-31T04:01:11.785Z,97429.72
2022-12-31T04:03:38.468Z,97421.06
2022-12-31T04:06:05.111Z,97422.53
2022-12-31T04:08:31.745Z,97423.41
2022-12-31T04:10:58.428Z,97431.56
2022-12-31T04:13:25.085Z,97417.38
2022-12-31T04:15:51.761Z,97416.03
2022-12-31T04:18:18.447Z,97411.16
2022-12-31T04:20:45.118Z,97412.63
2022-12-31T04:23:11.763Z,97417.19
2022-12-31T04:25:38.425Z,97405.78
2022-12-31T04:28:05.096Z,97404.25
2022-12-31T04:30:31.769Z,97401.84
2022-12-31T04:32:58.423Z,97405.66
2022-12-31T04:35:25.097Z,97412.22
2022-12-31T04:37:51.763Z,97408.50
2022-12-31T04:40:18.402Z,97408.00
2022-12-31T04:42:45.042Z,97417.19
2022-12-31T04:45:11.716Z,97419.69
2022-12-31T04:47:38.370Z,97426.59
2022-12-31T04:50:05.418Z,97415.00
2022-12-31T04:52:34.616Z,97406.19
2022-12-31T04:55:05.678Z,97407.34
2022-12-31T04:57:32.313Z,97424.44
2022-12-31T04:59:58.946Z,97419.81
2022-12-31T05:02:25.757Z,97422.00
2022-12-31T05:04:52.466Z,97423.59
2022-12-31T05:07:19.138Z,97427.09
2022-12-31T05:09:45.769Z,97432.28
2022-12-31T05:12:12.395Z,97413.34
2022-12-31T05:14:39.035Z,97416.75
2022-12-31T05:17:05.714Z,97409.19
2022-12-31T05:19:32.356Z,97413.00
2022-12-31T05:21:59.009Z,97409.34
2022-12-31T05:24:25.652Z,97407.72
2022-12-31T05:26:52.289Z,97409.84
2022-12-31T05:29:19.051Z,97417.03
2022-12-31T05:31:45.726Z,97417.28
2022-12-31T05:34:12.376Z,97410.13
2022-12-31T05:36:39.009Z,97408.13
2022-12-31T05:39:05.647Z,97412.50
2022-12-31T05:41:32.307Z,97416.13
2022-12-31T05:43:58.930Z,97427.81
2022-12-31T05:46:25.601Z,97421.78
2022-12-31T05:48:52.256Z,97420.69
2022-12-31T05:51:18.913Z,97415.16
2022-12-31T05:53:45.562Z,97412.50
2022-12-31T05:56:12.232Z,97406.44
2022-12-31T05:58:38.868Z,97410.44
2022-12-31T06:01:05.567Z,97421.47
2022-12-31T06:03:32.722Z,97432.97
2022-12-31T06:06:01.161Z,97434.16
2022-12-31T06:08:27.822Z,97428.53
2022-12-31T06:10:54.480Z,97429.19
2022-12-31T06:13:21.454Z,97442.66
2022-12-31T06:15:48.113Z,97448.31
2022-12-31T06:18:14.758Z,97435.09
2022-12-31T06:20:41.413Z,97451.34
2022-12-31T06:23:08.044Z,97449.16
2022-12-31T06:25:35.093Z,97452.25
2022-12-31T06:28:01.736Z,97456.41
2022-12-31T06:30:28.399Z,97457.84
2022-12-31T06:32:55.258Z,97455.34
2022-12-31T06:35:22.207Z,97453.59
2022-12-31T06:37:48.833Z,97445.56
2022-12-31T06:40:15.503Z,97434.06
2022-12-31T06:42:42.204Z,97436.50
2022-12-31T06:45:09.043Z,97442.16
2022-12-31T06:47:35.703Z,97432.63
2022-12-31T06:50:02.352Z,97430.53
2022-12-31T06:52:29.097Z,97439.22
2022-12-31T06:54:55.942Z,97435.34
2022-12-31T06:57:22.697Z,97438.81
2022-12-31T06:59:49.615Z,97433.88
2022-12-31T07:02:31.722Z,97441.19
2022-12-31T07:04:58.592Z,97434.34
2022-12-31T07:07:55.318Z,97427.50
2022-12-31T07:10:34.883Z,97435.34
2022-12-31T07:13:26.191Z,97435.81
2022-12-31T07:16:28.149Z,97446.41
2022-12-31T07:19:31.940Z,97443.91
2022-12-31T07:21:59.519Z,97443.31
2022-12-31T07:24:26.529Z,97438.31
2022-12-31T07:27:30.729Z,97452.34
2022-12-31T07:30:10.789Z,97458.44
2022-12-31T07:32:56.125Z,97452.25
2022-12-31T07:35:41.484Z,97452.00
2022-12-31T07:38:11.478Z,97463.25
2022-12-31T07:41:07.331Z,97476.63
2022-12-31T07:43:47.397Z,97476.63
2022-12-31T07:46:31.209Z,97487.91
2022-12-31T07:48:58.394Z,97488.13
2022-12-31T07:51:25.484Z,97487.28
2022-12-31T07:54:13.673Z,97494.31
2022-12-31T07:56:41.305Z,97489.69
2022-12-31T07:59:24.677Z,97495.44
2022-12-31T08:02:04.169Z,97485.88
2022-12-31T08:04:39.876Z,97487.81
2022-12-31T08:07:18.271Z,97476.28
2022-12-31T08:10:00.024Z,97492.94
2022-12-31T08:12:27.569Z,97481.56
2022-12-31T08:14:54.307Z,97489.66
2022-12-31T08:17:21.060Z,97485.53
2022-12-31T08:19:47.993Z,97466.44
2022-12-31T08:22:37.538Z,97450.44
2022-12-31T08:25:14.776Z,97462.75
2022-12-31T08:28:05.478Z,97470.47
2022-12-31T08:30:50.378Z,97456.22
2022-12-31T08:33:33.287Z,97451.81
2022-12-31T08:36:14.640Z,97456.94
2022-12-31T08:39:12.259Z,97451.91
2022-12-31T08:41:42.876Z,97445.44
2022-12-31T08:44:32.401Z,97443.09
2022-12-31T08:47:09.244Z,97454.78
2022-12-31T08:49:35.971Z,97454.72
2022-12-31T08:52:02.834Z,97459.06
2022-12-31T08:54:29.731Z,97458.50
2022-12-31T08:57:14.432Z,97464.81
2022-12-31T08:59:43.881Z,97467.69
2022-12-31T09:02:10.493Z,97473.53
2022-12-31T09:05:23.832Z,97459.84
2022-12-31T09:08:16.504Z,97467.16
2022-12-31T09:11:28.049Z,97471.13
2022-12-31T09:14:28.693Z,97462.53
2022-12-31T09:17:10.482Z,97456.88
2022-12-31T09:19:37.194Z,97454.78
2022-12-31T09:22:03.963Z,97464.63
2022-12-31T09:24:30.886Z,97468.66
2022-12-31T09:27:03.816Z,97451.22
2022-12-31T09:29:55.439Z,97465.69
2022-12-31T09:33:01.635Z,97456.06
2022-12-31T09:35:47.286Z,97467.81
2022-12-31T09:38:18.329Z,97464.16
2022-12-31T09:40:47.934Z,97454.81
2022-12-31T09:43:35.945Z,97452.88
2022-12-31T09:46:20.445Z,97459.19
2022-12-31T09:49:03.895Z,97452.72
2022-12-31T09:51:32.830Z,97466.66
2022-12-31T09:54:22.795Z,97461.28
2022-12-31T09:57:08.736Z,97440.44
2022-12-31T09:59:40.963Z,97431.91
2022-12-31T10:02:19.996Z,97425.81
2022-12-31T10:04:56.449Z,97433.03
2022-12-31T10:07:35.108Z,97427.13
2022-12-31T10:10:15.214Z,97420.97
2022-12-31T10:12:58.183Z,97419.25
2022-12-31T10:15:48.361Z,97414.38
2022-12-31T10:18:33.209Z,97412.03
2022-12-31T10:21:10.304Z,97393.28
2022-12-31T10:23:47.814Z,97391.97
2022-12-31T10:26:17.272Z,97396.06
2022-12-31T10:28:54.000Z,97385.19
2022-12-31T10:31:41.563Z,97382.38
2022-12-31T10:34:15.330Z,97384.38
2022-12-31T10:36:55.389Z,97378.47
2022-12-31T10:39:41.117Z,97378.41
2022-12-31T10:42:29.025Z,97386.25
2022-12-31T10:45:23.536Z,97384.50
2022-12-31T10:48:18.437Z,97378.22
2022-12-31T10:50:57.461Z,97379.25
2022-12-31T10:53:24.012Z,97379.25
2022-12-31T10:56:19.694Z,97376.31
2022-12-31T10:58:52.117Z,97374.75
2022-12-31T11:01:21.587Z,97370.13
2022-12-31T11:03:50.909Z,97377.75
2022-12-31T11:06:24.431Z,97383.34
2022-12-31T11:09:00.081Z,97369.06
2022-12-31T11:12:05.013Z,97367.63
2022-12-31T11:14:41.596Z,97379.34
2022-12-31T11:17:21.633Z,97364.75
2022-12-31T11:19:57.828Z,97353.63
2022-12-31T11:22:47.494Z,97342.22
2022-12-31T11:25:46.598Z,97348.66
2022-12-31T11:28:43.996Z,97351.13
2022-12-31T11:31:22.644Z,97349.84
2022-12-31T11:34:03.660Z,97350.56
2022-12-31T11:36:33.273Z,97336.94
2022-12-31T11:39:31.340Z,97333.22
2022-12-31T11:42:23.705Z,97326.34
2022-12-31T11:45:12.736Z,97325.78
2022-12-31T11:48:29.133Z,97313.03
2022-12-31T11:51:06.900Z,97308.44
2022-12-31T11:53:42.458Z,97302.13
2022-12-31T11:56:19.776Z,97290.97
2022-12-31T11:58:48.939Z,97281.44
2022-12-31T12:01:46.441Z,97273.25
2022-12-31T12:04:13.072Z,97271.69
2022-12-31T12:06:40.007Z,97265.56
2022-12-31T12:09:10.499Z,97263.81
2022-12-31T12:11:43.221Z,97264.06
2022-12-31T12:14:26.993Z,97256.81
2022-12-31T12:16:57.850Z,97247.97
2022-12-31T12:19:31.535Z,97251.41
2022-12-31T12:21:58.240Z,97246.31
2022-12-31T12:24:28.851Z,97241.28
2022-12-31T12:26:55.863Z,97237.41
2022-12-31T12:29:33.102Z,97252.72
2022-12-31T12:32:02.559Z,97244.06
2022-12-31T12:34:36.822Z,97241.94
2022-12-31T12:37:03.470Z,97232.88
2022-12-31T12:39:32.323Z,97232.25
2022-12-31T12:42:10.635Z,97243.63
2022-12-31T12:44:37.343Z,97244.69
2022-12-31T12:47:06.049Z,97245.59
2022-12-31T12:49:40.598Z,97252.56
2022-12-31T12:52:29.110Z,97238.97
2022-12-31T12:55:07.452Z,97241.88
2022-12-31T12:57:34.578Z,97246.22
2022-12-31T13:00:05.525Z,97255.78
2022-12-31T13:02:35.149Z,97259.38
2022-12-31T13:05:25.955Z,97249.56
2022-12-31T13:08:19.612Z,97257.28
2022-12-31T13:10:49.052Z,97255.66
2022-12-31T13:13:30.730Z,97269.13
2022-12-31T13:16:22.410Z,97257.06
2022-12-31T13:19:11.395Z,97258.41
2022-12-31T13:21:50.898Z,97250.56
2022-12-31T13:24:44.283Z,97251.53
2022-12-31T13:27:29.518Z,97250.50
2022-12-31T13:29:59.133Z,97245.47
2022-12-31T13:32:42.919Z,97249.81
2022-12-31T13:35:24.592Z,97240.75
2022-12-31T13:37:51.489Z,97248.81
2022-12-31T13:40:21.769Z,97250.31
2022-12-31T13:42:53.808Z,97256.75
2022-12-31T13:45:47.330Z,97248.31
2022-12-31T13:48:17.401Z,97253.97
2022-12-31T13:50:55.002Z,97259.63
2022-12-31T13:53:38.737Z,97261.44
2022-12-31T13:56:13.226Z,97255.84
2022-12-31T13:58:47.430Z,97259.94
2022-12-31T14:01:33.418Z,97245.13
2022-12-31T14:04:17.087Z,97252.94
2022-12-31T14:07:10.661Z,97267.19
2022-12-31T14:09:37.353Z,97272.53
2022-12-31T14:12:37.740Z,97276.59
2022-12-31T14:15:10.767Z,97277.16
2022-12-31T14:18:11.363Z,97273.84
2022-12-31T14:20:57.104Z,97273.00
2022-12-31T14:23:29.590Z,97280.19
2022-12-31T14:26:08.724Z,97276.44
2022-12-31T14:28:47.674Z,97299.88
2022-12-31T14:31:46.053Z,97285.28
2022-12-31T14:34:31.950Z,97284.63
2022-12-31T14:37:01.249Z,97286.56
2022-12-31T14:39:54.996Z,97294.59
2022-12-31T14:42:36.446Z,97276.44
2022-12-31T14:45:15.339Z,97291.25
2022-12-31T14:47:52.696Z,97286.63
2022-12-31T14:50:24.577Z,97288.66
2022-12-31T14:53:00.124Z,97276.25
2022-12-31T14:55:34.385Z,97274.81
2022-12-31T14:58:27.103Z,97277.63
2022-12-31T15:01:02.247Z,97276.03
2022-12-31T15:03:31.774Z,97275.41
2022-12-31T15:06:02.323Z,97285.53
2022-12-31T15:08:35.420Z,97287.66
2022-12-31T15:11:04.842Z,97286.28
2022-12-31T15:14:03.437Z,97307.75
2022-12-31T15:16:36.845Z,97288.00
2022-12-31T15:19:18.551Z,97302.09
2022-12-31T15:21:56.253Z,97311.56
2022-12-31T15:24:26.579Z,97308.06
2022-12-31T15:26:57.544Z,97320.38
2022-12-31T15:29:33.731Z,97319.91
2022-12-31T15:32:02.381Z,97323.88
2022-12-31T15:34:33.114Z,97312.94
2022-12-31T15:37:01.690Z,97314.88
2022-12-31T15:39:31.167Z,97317.09
2022-12-31T15:44:55.175Z,97315.97
2022-12-31T15:47:29.084Z,97311.69
2022-12-31T15:49:56.001Z,97306.28
2022-12-31T15:52:41.792Z,97316.56
2022-12-31T15:55:09.003Z,97320.31
2022-12-31T15:57:40.197Z,97327.22
2022-12-31T16:00:18.465Z,97329.22
2022-12-31T16:02:45.283Z,97319.19
2022-12-31T16:05:25.159Z,97313.63
2022-12-31T16:07:55.481Z,97326.47
2022-12-31T16:10:31.709Z,97302.75
2022-12-31T16:12:58.406Z,97331.06
2022-12-31T16:15:27.203Z,97330.25
2022-12-31T16:18:09.544Z,97326.53
2022-12-31T16:20:41.433Z,97329.97
2022-12-31T16:23:23.122Z,97318.41
2022-12-31T16:25:50.546Z,97328.25
2022-12-31T16:28:18.967Z,97326.09
2022-12-31T16:30:45.665Z,97334.72
2022-12-31T16:33:14.122Z,97333.69
2022-12-31T16:35:40.812Z,97336.44
2022-12-31T16:38:17.758Z,97333.47
2022-12-31T16:41:02.530Z,97346.09
2022-12-31T16:43:41.499Z,97333.91
2022-12-31T16:46:17.275Z,97337.84
2022-12-31T16:48:54.371Z,97334.63
2022-12-31T16:51:22.330Z,97338.84
2022-12-31T16:53:49.147Z,97346.84
2022-12-31T16:56:38.514Z,97340.53
2022-12-31T16:59:07.559Z,97341.13
2022-12-31T17:01:34.523Z,97338.31
2022-12-31T17:04:04.069Z,97342.06
2022-12-31T17:06:30.736Z,97346.97
2022-12-31T17:08:57.247Z,97345.91
2022-12-31T17:11:42.639Z,97343.94
2022-12-31T17:14:09.142Z,97352.81
2022-12-31T17:17:02.067Z,97348.09
2022-12-31T17:19:42.678Z,97357.47
2022-12-31T17:22:13.739Z,97341.25
2022-12-31T17:24:40.383Z,97358.78
2022-12-31T17:27:07.769Z,97346.97
2022-12-31T17:29:34.492Z,97362.66
2022-12-31T17:32:19.227Z,97368.28
2022-12-31T17:34:49.744Z,97374.28
2022-12-31T17:37:18.678Z,97366.28
2022-12-31T17:39:50.039Z,97373.22
2022-12-31T17:42:28.705Z,97378.22
2022-12-31T17:44:57.037Z,97375.19
2022-12-31T17:47:23.695Z,97380.41
2022-12-31T17:49:50.368Z,97378.72
2022-12-31T17:52:17.003Z,97388.28
2022-12-31T17:54:43.637Z,97386.47
2022-12-31T17:57:26.741Z,97383.88
2022-12-31T17:59:53.628Z,97382.88
2022-12-31T18:02:20.343Z,97358.81
2022-12-31T18:04:47.439Z,97374.63
2022-12-31T18:07:14.095Z,97356.78
2022-12-31T18:09:40.852Z,97358.63
2022-12-31T18:12:07.555Z,97361.03
2022-12-31T18:14:34.253Z,97354.06
2022-12-31T18:17:00.917Z,97361.00
2022-12-31T18:20:02.712Z,97347.31
2022-12-31T18:22:15.347Z,97371.47
2022-12-31T18:24:42.705Z,97347.06
2022-12-31T18:27:19.016Z,97357.00
2022-12-31T18:29:45.684Z,97360.22
2022-12-31T18:32:42.750Z,97361.81
2022-12-31T18:35:40.726Z,97371.19
2022-12-31T18:38:06.992Z,97352.81
2022-12-31T18:40:33.614Z,97352.00
2022-12-31T18:43:04.873Z,97384.19
2022-12-31T18:45:32.017Z,97353.69
2022-12-31T18:47:58.670Z,97368.25
2022-12-31T18:50:25.291Z,97378.50
2022-12-31T18:52:51.936Z,97366.94
2022-12-31T18:55:32.413Z,97365.25
2022-12-31T18:57:59.084Z,97362.25
2022-12-31T19:00:25.728Z,97377.47
2022-12-31T19:02:52.455Z,97369.63
2022-12-31T19:05:46.151Z,97370.09
2022-12-31T19:08:12.779Z,97371.94
2022-12-31T19:10:42.398Z,97364.75
2022-12-31T19:13:18.580Z,97373.97
2022-12-31T19:15:51.919Z,97391.44
2022-12-31T19:18:18.690Z,97364.00
2022-12-31T19:20:45.387Z,97363.28
2022-12-31T19:23:16.502Z,97379.34
2022-12-31T19:25:43.505Z,97366.09
2022-12-31T19:28:26.540Z,97375.28
2022-12-31T19:30:53.181Z,97381.00
2022-12-31T19:33:20.028Z,97383.03
2022-12-31T19:35:46.976Z,97395.59
2022-12-31T19:38:21.959Z,97370.19
2022-12-31T19:40:49.103Z,97397.47
2022-12-31T19:43:16.916Z,97383.22
2022-12-31T19:45:43.776Z,97390.78
2022-12-31T19:48:14.412Z,97395.94
2022-12-31T19:50:46.775Z,97372.16
2022-12-31T19:53:17.834Z,97394.59
2022-12-31T19:55:44.519Z,97383.38
2022-12-31T19:58:21.707Z,97384.22
2022-12-31T20:00:55.635Z,97393.94
2022-12-31T20:03:25.109Z,97377.50
2022-12-31T20:05:51.790Z,97412.34
2022-12-31T20:08:18.471Z,97377.34
2022-12-31T20:10:45.125Z,97396.63
2022-12-31T20:13:11.773Z,97407.16
2022-12-31T20:15:40.042Z,97402.81
2022-12-31T20:18:06.689Z,97393.94
2022-12-31T20:20:33.335Z,97410.56
2022-12-31T20:23:02.901Z,97405.50
2022-12-31T20:25:30.000Z,97406.88
2022-12-31T20:27:56.668Z,97413.56
2022-12-31T20:30:23.381Z,97412.34
2022-12-31T20:32:52.475Z,97424.44
2022-12-31T20:35:19.786Z,97428.44
2022-12-31T20:37:46.426Z,97423.59
2022-12-31T20:40:13.055Z,97444.53
2022-12-31T20:42:43.281Z,97445.88
2022-12-31T20:45:16.039Z,97451.41
2022-12-31T20:47:42.683Z,97463.31
2022-12-31T20:50:12.909Z,97454.63
2022-12-31T20:52:42.790Z,97452.94
2022-12-31T20:55:12.871Z,97459.97
2022-12-31T20:57:40.158Z,97449.75
2022-12-31T21:00:07.232Z,97469.50
2022-12-31T21:02:42.778Z,97441.72
2022-12-31T21:05:10.247Z,97456.28
2022-12-31T21:07:37.022Z,97447.22
2022-12-31T21:10:04.195Z,97443.56
2022-12-31T21:12:30.861Z,97457.25
2022-12-31T21:14:57.515Z,97445.34
2022-12-31T21:17:24.149Z,97453.38
2022-12-31T21:19:51.474Z,97458.91
2022-12-31T21:22:18.115Z,97451.56
2022-12-31T21:24:44.741Z,97470.09
2022-12-31T21:27:11.375Z,97451.84
2022-12-31T21:29:55.734Z,97455.16
2022-12-31T21:32:24.633Z,97459.72
2022-12-31T21:35:14.444Z,97455.56
2022-12-31T21:37:58.195Z,97459.91
2022-12-31T21:40:24.645Z,97453.47
2022-12-31T21:42:51.290Z,97451.31
2022-12-31T21:45:17.928Z,97453.59
2022-12-31T21:47:47.635Z,97458.94
2022-12-31T21:50:14.593Z,97463.69
2022-12-31T21:52:41.248Z,97459.00
2022-12-31T21:55:08.276Z,97464.34
2022-12-31T21:57:59.034Z,97458.53
2022-12-31T22:00:41.958Z,97480.75
2022-12-31T22:03:09.949Z,97483.59
2022-12-31T22:05:36.760Z,97471.91
2022-12-31T22:08:03.511Z,97485.75
2022-12-31T22:10:36.957Z,97477.94
2022-12-31T22:13:03.987Z,97504.09
2022-12-31T22:15:30.661Z,97487.84
2022-12-31T22:17:57.286Z,97492.88
2022-12-31T22:20:28.305Z,97489.91
2022-12-31T22:22:55.430Z,97499.56
2022-12-31T22:25:22.087Z,97509.44
2022-12-31T22:28:04.459Z,97486.00
2022-12-31T22:30:35.371Z,97513.47
2022-12-31T22:33:02.029Z,97511.97
2022-12-31T22:35:31.226Z,97503.28
2022-12-31T22:38:01.700Z,97521.72
2022-12-31T22:40:33.269Z,97513.69
2022-12-31T22:42:59.932Z,97516.50
2022-12-31T22:45:26.554Z,97510.63
2022-12-31T22:47:53.230Z,97519.16
2022-12-31T22:50:19.865Z,97518.94
2022-12-31T22:52:46.609Z,97515.28
2022-12-31T22:55:13.244Z,97534.03
2022-12-31T22:57:39.893Z,97531.47
2022-12-31T23:00:07.358Z,97524.09
2022-12-31T23:02:38.402Z,97516.22
2022-12-31T23:05:15.344Z,97527.81
2022-12-31T23:10:10.349Z,97523.28
2022-12-31T23:12:37.014Z,97542.19
2022-12-31T23:15:08.918Z,97526.31
2022-12-31T23:17:35.607Z,97524.63
2022-12-31T23:20:05.617Z,97534.16
2022-12-31T23:22:32.343Z,97524.66
2022-12-31T23:24:59.028Z,97523.56
2022-12-31T23:27:25.655Z,97525.22
2022-12-31T23:29:52.426Z,97532.59
2022-12-31T23:32:19.065Z,97533.41
2022-12-31T23:34:46.063Z,97539.75
2022-12-31T23:37:13.479Z,97524.66
2022-12-31T23:39:40.157Z,97540.75
2022-12-31T23:42:06.779Z,97537.75
2022-12-31T23:44:33.431Z,97548.97
2022-12-31T23:47:00.145Z,97522.88
2022-12-31T23:49:26.857Z,97521.19
2022-12-31T23:51:53.504Z,97531.41
2022-12-31T23:54:20.183Z,97525.84
2022-12-31T23:56:46.854Z,97525.00
2022-12-31T23:59:13.531Z,97512.13
